createdAt,value
2022-09-04T00:03:58.137Z,15.63
2022-09-04T00:09:14.888Z,11.63
2022-09-04T00:14:23.342Z,13.10
2022-09-04T00:19:37.289Z,14.35
2022-09-04T00:24:44.560Z,10.63
2022-09-04T00:30:01.421Z,9.95
2022-09-04T00:35:12.455Z,10.80
2022-09-04T00:40:26.727Z,11.45
2022-09-04T00:46:06.499Z,10.07
2022-09-04T00:51:18.520Z,11.02
2022-09-04T00:56:51.208Z,12.65
2022-09-04T01:02:03.680Z,8.93
2022-09-04T01:07:25.502Z,8.15
2022-09-04T01:12:39.737Z,7.80
2022-09-04T01:18:01.754Z,9.13
2022-09-04T01:23:27.028Z,7.15
2022-09-04T01:28:45.801Z,7.38
2022-09-04T01:34:02.218Z,7.70
2022-09-04T01:39:06.515Z,7.95
2022-09-04T01:44:14.034Z,8.32
2022-09-04T01:49:29.611Z,9.68
2022-09-04T01:54:45.060Z,9.80
2022-09-04T02:00:04.637Z,9.93
2022-09-04T02:05:19.298Z,9.57
2022-09-04T02:10:36.449Z,9.90
2022-09-04T02:15:50.907Z,9.27
2022-09-04T02:21:03.476Z,10.43
2022-09-04T02:26:15.805Z,9.43
2022-09-04T02:31:31.878Z,7.35
2022-09-04T02:36:43.227Z,7.55
2022-09-04T02:41:58.430Z,7.13
2022-09-04T02:47:16.307Z,7.57
2022-09-04T02:52:40.677Z,6.50
2022-09-04T02:58:00.418Z,6.72
2022-09-04T03:08:18.907Z,5.18
2022-09-04T03:13:32.249Z,6.05
2022-09-04T03:18:57.294Z,6.25
2022-09-04T03:24:08.179Z,5.30
2022-09-04T03:29:25.694Z,5.53
2022-09-04T03:34:48.467Z,6.15
2022-09-04T03:40:07.808Z,6.25
2022-09-04T03:45:23.316Z,6.03
2022-09-04T03:50:37.398Z,6.25
2022-09-04T03:55:58.836Z,6.32
2022-09-04T04:01:13.807Z,5.32
2022-09-04T04:06:32.301Z,6.30
2022-09-04T04:12:07.086Z,5.32
2022-09-04T04:17:31.962Z,6.55
2022-09-04T04:22:50.793Z,7.43
2022-09-04T04:28:12.351Z,5.65
2022-09-04T04:33:43.091Z,6.70
2022-09-04T04:39:14.625Z,6.75
2022-09-04T04:44:48.254Z,6.30
2022-09-04T04:50:06.658Z,7.80
2022-09-04T04:55:26.779Z,5.88
2022-09-04T05:00:37.780Z,5.97
2022-09-04T05:05:57.362Z,5.93
2022-09-04T05:11:10.919Z,6.18
2022-09-04T05:16:22.325Z,6.88
2022-09-04T05:21:38.347Z,6.07
2022-09-04T05:26:51.637Z,7.05
2022-09-04T05:31:59.999Z,7.07
2022-09-04T05:37:14.778Z,6.53
2022-09-04T05:42:52.040Z,7.63
2022-09-04T05:48:08.940Z,7.82
2022-09-04T05:53:43.316Z,7.13
2022-09-04T05:59:10.445Z,6.43
2022-09-04T06:04:42.750Z,6.35
2022-09-04T06:10:01.433Z,7.38
2022-09-04T06:15:32.821Z,7.63
2022-09-04T06:20:52.501Z,7.50
2022-09-04T06:31:52.377Z,6.73
2022-09-04T06:37:10.296Z,6.80
2022-09-04T06:42:30.598Z,6.18
2022-09-04T06:47:53.198Z,6.32
2022-09-04T06:53:20.089Z,9.25
2022-09-04T06:59:04.303Z,5.78
2022-09-04T07:04:21.604Z,5.80
2022-09-04T07:09:32.656Z,6.47
2022-09-04T07:15:14.504Z,5.60
2022-09-04T07:20:28.426Z,5.97
2022-09-04T07:25:42.557Z,6.78
2022-09-04T07:30:53.971Z,6.55
2022-09-04T07:36:10.223Z,6.60
2022-09-04T07:41:24.650Z,7.43
2022-09-04T07:46:37.706Z,6.28
2022-09-04T07:51:49.057Z,7.25
2022-09-04T07:57:19.082Z,5.00
2022-09-04T08:03:02.201Z,8.93
2022-09-04T08:08:40.217Z,5.70
2022-09-04T08:14:22.268Z,6.53
2022-09-04T08:19:41.109Z,5.82
2022-09-04T08:25:14.034Z,5.13
2022-09-04T08:30:21.778Z,5.57
2022-09-04T08:35:33.637Z,6.72
2022-09-04T08:41:25.856Z,9.93
2022-09-04T08:47:11.543Z,6.47
2022-09-04T08:52:53.304Z,6.60
2022-09-04T08:58:30.326Z,6.32
2022-09-04T09:04:07.899Z,6.18
2022-09-04T09:09:52.018Z,5.72
2022-09-04T09:15:29.780Z,5.75
2022-09-04T09:20:47.023Z,5.68
2022-09-04T09:26:09.807Z,7.70
2022-09-04T09:32:04.047Z,5.82
2022-09-04T09:37:35.962Z,4.88
2022-09-04T09:43:27.459Z,4.70
2022-09-04T09:48:58.131Z,4.88
2022-09-04T09:54:50.026Z,4.68
2022-09-04T10:00:18.869Z,5.57
2022-09-04T10:05:53.502Z,4.30
2022-09-04T10:11:30.880Z,4.07
2022-09-04T10:17:22.797Z,4.80
2022-09-04T10:22:53.933Z,4.97
2022-09-04T10:28:26.343Z,4.35
2022-09-04T10:33:46.235Z,4.68
2022-09-04T10:44:45.178Z,5.20
2022-09-04T10:50:15.116Z,5.35
2022-09-04T10:55:33.268Z,7.53
2022-09-04T11:00:50.359Z,5.43
2022-09-04T11:06:35.977Z,5.20
2022-09-04T11:12:02.588Z,5.03
2022-09-04T11:17:46.661Z,7.07
2022-09-04T11:23:32.754Z,5.85
2022-09-04T11:28:58.916Z,4.40
2022-09-04T11:34:40.406Z,5.50
2022-09-04T11:40:12.846Z,4.97
2022-09-04T11:45:41.717Z,6.25
2022-09-04T11:51:03.812Z,6.77
2022-09-04T11:56:25.948Z,7.45
2022-09-04T12:01:49.926Z,8.18
2022-09-04T12:07:22.208Z,8.90
2022-09-04T12:13:14.740Z,9.55
2022-09-04T12:18:58.951Z,11.40
2022-09-04T12:24:36.136Z,7.95
2022-09-04T12:29:59.640Z,7.30
2022-09-04T12:35:37.454Z,6.82
2022-09-04T12:40:54.407Z,5.88
2022-09-04T12:46:14.958Z,8.20
2022-09-04T12:51:25.483Z,7.25
2022-09-04T12:56:42.931Z,8.52
2022-09-04T13:01:57.119Z,6.85
2022-09-04T13:07:16.373Z,9.25
2022-09-04T13:12:31.744Z,7.85
2022-09-04T13:17:51.415Z,5.18
2022-09-04T13:23:10.989Z,6.30
2022-09-04T13:28:33.733Z,6.15
2022-09-04T13:33:53.716Z,5.68
2022-09-04T13:39:30.566Z,6.75
2022-09-04T13:45:04.510Z,6.35
2022-09-04T13:50:17.933Z,5.07
2022-09-04T13:55:26.002Z,6.55
2022-09-04T14:00:34.396Z,6.75
2022-09-04T14:05:40.277Z,5.60
2022-09-04T14:11:21.539Z,6.70
2022-09-04T14:16:28.056Z,6.40
2022-09-04T14:21:46.019Z,5.55
2022-09-04T14:27:01.398Z,5.80
2022-09-04T14:32:22.732Z,4.40
2022-09-04T14:37:48.529Z,4.05
2022-09-04T14:43:01.888Z,4.38
2022-09-04T14:48:12.948Z,6.35
2022-09-04T14:53:25.211Z,4.63
2022-09-04T14:58:35.762Z,4.00
2022-09-04T15:03:51.294Z,5.18
2022-09-04T15:08:57.602Z,4.95
2022-09-04T15:14:08.337Z,3.97
2022-09-04T15:19:36.422Z,4.03
2022-09-04T15:24:54.661Z,4.63
2022-09-04T15:30:07.031Z,3.70
2022-09-04T15:35:23.352Z,4.60
2022-09-04T15:40:35.231Z,5.10
2022-09-04T15:45:47.533Z,6.15
2022-09-04T15:51:21.204Z,4.15
2022-09-04T15:56:38.385Z,3.72
2022-09-04T16:01:51.278Z,4.40
2022-09-04T16:07:06.959Z,4.78
2022-09-04T16:12:18.765Z,4.47
2022-09-04T16:17:27.233Z,8.45
2022-09-04T16:22:42.428Z,5.90
2022-09-04T16:27:51.171Z,5.47
2022-09-04T16:32:55.712Z,7.13
2022-09-04T16:38:09.520Z,5.22
2022-09-04T16:43:25.349Z,4.82
2022-09-04T16:48:35.474Z,5.55
2022-09-04T16:53:49.105Z,5.28
2022-09-04T16:58:56.843Z,7.32
2022-09-04T17:04:29.951Z,6.15
2022-09-04T17:09:56.891Z,5.60
2022-09-04T17:15:13.619Z,5.35
2022-09-04T17:21:39.672Z,9.40
2022-09-04T17:29:16.662Z,5.05
2022-09-04T17:31:30.180Z,6.40
2022-09-04T17:40:46.826Z,5.75
2022-09-04T17:42:17.200Z,6.78
2022-09-04T17:47:30.632Z,6.18
2022-09-04T17:52:39.550Z,6.60
2022-09-04T17:57:57.633Z,6.28
2022-09-04T18:03:07.997Z,7.28
2022-09-04T18:08:19.302Z,6.55
2022-09-04T18:13:38.030Z,7.78
2022-09-04T18:18:47.274Z,7.45
2022-09-04T18:24:00.730Z,9.23
2022-09-04T18:30:06.663Z,8.35
2022-09-04T18:37:16.261Z,11.63
2022-09-04T18:40:20.456Z,12.00
2022-09-04T18:50:39.878Z,10.98
2022-09-04T18:51:22.087Z,12.77
2022-09-04T18:56:30.613Z,9.77
2022-09-04T19:01:45.470Z,11.48
2022-09-04T19:07:07.378Z,12.55
2022-09-04T19:12:15.660Z,11.00
2022-09-04T19:17:28.377Z,10.90
2022-09-04T19:22:39.127Z,9.85
2022-09-04T19:27:49.966Z,9.70
2022-09-04T19:33:12.550Z,11.07
2022-09-04T19:45:54.825Z,9.73
2022-09-04T19:46:17.544Z,11.77
2022-09-04T19:53:17.607Z,12.88
2022-09-04T19:55:23.720Z,14.55
2022-09-04T20:00:43.970Z,15.57
2022-09-04T20:06:00.384Z,12.87
2022-09-04T20:11:35.362Z,12.32
2022-09-04T20:16:49.072Z,15.23
2022-09-04T20:22:01.516Z,13.07
2022-09-04T20:27:15.964Z,11.50
2022-09-04T20:32:26.814Z,12.00
2022-09-04T20:37:46.588Z,14.68
2022-09-04T20:42:56.987Z,12.10
2022-09-04T20:52:42.180Z,11.15
2022-09-04T20:53:55.726Z,11.38
2022-09-04T21:03:13.237Z,18.17
2022-09-04T21:05:03.294Z,12.07
2022-09-04T21:10:18.979Z,12.07
2022-09-04T21:15:38.419Z,12.13
2022-09-04T21:21:13.843Z,13.27
2022-09-04T21:26:32.380Z,19.05
2022-09-04T21:31:59.031Z,15.35
2022-09-04T21:37:10.583Z,14.50
2022-09-04T21:42:43.235Z,16.65
2022-09-04T21:48:18.495Z,17.52
2022-09-04T21:54:13.079Z,17.25
2022-09-04T22:02:42.250Z,23.80
2022-09-04T22:05:50.495Z,26.33
2022-09-04T22:13:29.247Z,39.22
2022-09-04T22:16:51.888Z,33.50
2022-09-04T22:22:11.122Z,29.25
2022-09-04T22:28:08.522Z,28.30
2022-09-04T22:33:32.946Z,25.17
2022-09-04T22:39:21.398Z,25.48
2022-09-04T22:44:59.348Z,23.63
2022-09-04T22:50:54.199Z,26.08
2022-09-04T22:56:23.030Z,20.98
2022-09-04T23:01:54.632Z,22.92
2022-09-04T23:12:09.490Z,20.20
2022-09-04T23:13:51.283Z,18.40
2022-09-04T23:21:43.217Z,18.77
2022-09-04T23:26:53.433Z,14.98
2022-09-04T23:30:25.636Z,15.27
2022-09-04T23:35:43.640Z,16.10
2022-09-04T23:41:17.650Z,12.32
2022-09-04T23:47:02.891Z,12.23
2022-09-04T23:52:48.787Z,10.82
2022-09-04T23:58:47.131Z,11.82
